Time;durP1;ratioP1;P1;durP2;ratioP2;P2;SDS_P1;SDS_P2;PMS_P1;PMS_P2;Temp;Humidity;BMP_temperature;BMP_pressure;BME280_temperature;BME280_humidity;BME280_pressure;Samples;Min_cycle;Max_cycle;Signal;HPM_P1;HPM_P2
2022/07/06 00:01:08;;;;;;;0.00;0.00;;;20.30;95.00;19.20;96715.00;;;;5054049;28;20218;-77
2022/07/06 00:03:36;;;;;;;0.00;0.00;;;20.30;95.10;19.30;96733.00;;;;5054026;28;20217;-77
2022/07/06 00:06:05;;;;;;;0.00;0.00;;;20.30;95.20;19.30;96746.00;;;;5053513;28;20694;-76
2022/07/06 00:08:33;;;;;;;0.00;0.00;;;20.30;95.20;19.40;96764.00;;;;5053698;28;20197;-78
2022/07/06 00:11:03;;;;;;;0.00;0.00;;;20.40;95.40;19.30;96740.00;;;;5053409;28;20267;-76
2022/07/06 00:13:31;;;;;;;0.00;0.00;;;20.30;95.50;19.10;96733.00;;;;5053425;28;20569;-76
2022/07/06 00:15:59;;;;;;;0.00;0.00;;;20.20;95.60;19.10;96746.00;;;;5052742;28;20252;-76
2022/07/06 00:18:27;;;;;;;0.00;0.00;;;20.20;95.50;19.20;96748.00;;;;5052557;28;20198;-75
2022/07/06 00:20:55;;;;;;;0.00;0.00;;;20.20;95.60;19.30;96764.00;;;;5052541;28;20293;-76
2022/07/06 00:23:23;;;;;;;0.00;0.00;;;20.20;95.60;19.30;96762.00;;;;5053298;28;20186;-77
2022/07/06 00:25:51;;;;;;;0.00;0.00;;;20.30;95.60;19.30;96752.00;;;;5053103;28;20209;-76
2022/07/06 00:28:20;;;;;;;0.00;0.00;;;20.20;95.40;18.90;96701.00;;;;5053232;28;20609;-76
2022/07/06 00:30:49;;;;;;;0.00;0.00;;;20.00;96.20;18.90;96714.00;;;;5052979;28;20710;-77
2022/07/06 00:33:17;;;;;;;0.00;0.00;;;20.00;96.10;18.90;96710.00;;;;5053229;28;20255;-77
2022/07/06 00:35:45;;;;;;;0.00;0.00;;;20.00;96.30;18.90;96715.00;;;;5053190;28;20629;-76
2022/07/06 00:38:13;;;;;;;0.00;0.00;;;19.90;96.40;18.80;96711.00;;;;5051500;28;20195;-75
2022/07/06 00:40:41;;;;;;;0.00;0.00;;;19.80;96.60;18.70;96709.00;;;;5052817;28;20281;-76
2022/07/06 00:43:09;;;;;;;0.00;0.00;;;19.80;96.70;18.90;96698.00;;;;5052091;28;20562;-75
2022/07/06 00:45:39;;;;;;;0.00;0.00;;;19.90;96.60;19.00;96726.00;;;;5053285;28;20230;-76
2022/07/06 00:48:07;;;;;;;0.00;0.00;;;20.10;96.70;19.10;96729.00;;;;5050289;28;20281;-77
2022/07/06 00:50:37;;;;;;;0.00;0.00;;;20.10;96.60;18.90;96703.00;;;;5052625;28;20210;-76
2022/07/06 00:53:07;;;;;;;0.00;0.00;;;20.00;97.10;18.90;96707.00;;;;5051589;28;20285;-76
2022/07/06 00:55:39;;;;;;;0.00;0.00;;;19.90;97.30;18.90;96717.00;;;;5052753;28;20245;-76
2022/07/06 00:58:09;;;;;;;0.00;0.00;;;19.90;97.60;18.70;96716.00;;;;5052620;28;20218;-76
2022/07/06 01:00:44;;;;;;;0.00;0.00;;;19.70;98.00;18.60;96703.00;;;;5051808;28;20301;-77
2022/07/06 01:03:12;;;;;;;0.00;0.00;;;19.70;98.30;18.40;96692.00;;;;5052737;28;20194;-75
2022/07/06 01:05:40;;;;;;;0.00;0.00;;;19.60;98.50;18.50;96686.00;;;;5052908;28;20202;-76
2022/07/06 01:08:08;;;;;;;0.00;0.00;;;19.70;98.40;18.70;96710.00;;;;5051023;28;20191;-77
2022/07/06 01:10:36;;;;;;;0.00;0.00;;;19.80;98.40;18.70;96710.00;;;;5052546;28;20218;-76
2022/07/06 01:13:05;;;;;;;0.00;0.00;;;19.80;98.70;18.60;96638.00;;;;5052530;28;20198;-75
2022/07/06 01:15:33;;;;;;;0.00;0.00;;;19.60;99.20;18.50;96691.00;;;;5051154;28;20413;-76
2022/07/06 01:18:04;;;;;;;0.00;0.00;;;19.50;99.70;18.10;96676.00;;;;5050971;28;20285;-77
2022/07/06 01:20:34;;;;;;;0.00;0.00;;;19.20;99.90;18.10;96697.00;;;;5051192;28;20598;-76
2022/07/06 01:23:02;;;;;;;0.00;0.00;;;19.10;99.90;18.20;96735.00;;;;5051276;28;20217;-77
2022/07/06 01:25:30;;;;;;;0.00;0.00;;;19.10;99.90;18.00;96742.00;;;;5052221;28;20198;-76
2022/07/06 01:27:58;;;;;;;0.00;0.00;;;19.20;99.90;17.60;96702.00;;;;5052272;28;20186;-77
2022/07/06 01:30:26;;;;;;;0.00;0.00;;;18.90;99.90;17.40;96684.00;;;;5050938;28;20218;-76
2022/07/06 01:32:54;;;;;;;0.00;0.00;;;18.80;99.90;17.60;96613.00;;;;5052119;28;20186;-77
2022/07/06 01:35:25;;;;;;;0.00;0.00;;;18.80;99.90;17.80;96702.00;;;;5050523;28;20578;-77
2022/07/06 01:37:54;;;;;;;0.00;0.00;;;18.90;99.90;17.80;96705.00;;;;5050525;28;20206;-75
2022/07/06 01:40:22;;;;;;;0.00;0.00;;;18.90;99.90;17.80;96720.00;;;;5050464;28;20347;-76
2022/07/06 01:42:50;;;;;;;0.00;0.00;;;18.90;99.90;17.70;96727.00;;;;5050784;28;20198;-77
2022/07/06 01:45:20;;;;;;;0.00;0.00;;;18.70;99.90;17.50;96717.00;;;;5050459;28;20581;-76
2022/07/06 01:47:48;;;;;;;0.00;0.00;;;18.50;99.90;17.20;96687.00;;;;5050460;28;20677;-76
2022/07/06 01:50:17;;;;;;;0.00;0.00;;;18.30;99.90;17.00;96676.00;;;;5050286;28;20586;-76
2022/07/06 01:52:47;;;;;;;0.00;0.00;;;17.90;99.90;16.70;96682.00;;;;5050500;28;20199;-76
2022/07/06 01:55:16;;;;;;;0.00;0.00;;;17.70;99.90;16.60;96676.00;;;;5050276;28;20214;-76
2022/07/06 01:57:44;;;;;;;0.00;0.00;;;17.70;99.90;16.60;96684.00;;;;5049811;28;20198;-76
2022/07/06 02:00:15;;;;;;;0.00;0.00;;;17.70;99.90;16.60;96673.00;;;;5050765;28;20276;-76
2022/07/06 02:02:48;;;;;;;0.00;0.00;;;17.70;99.90;16.60;96663.00;;;;5051715;28;20209;-76
2022/07/06 02:05:16;;;;;;;0.00;0.00;;;17.70;99.90;16.70;96677.00;;;;5050472;28;20209;-75
2022/07/06 02:07:44;;;;;;;0.00;0.00;;;17.90;99.90;16.60;96674.00;;;;5050163;28;20198;-76
2022/07/06 02:10:13;;;;;;;0.00;0.00;;;17.80;99.90;16.60;96642.00;;;;5050168;28;20218;-76
2022/07/06 02:12:44;;;;;;;0.00;0.00;;;17.80;99.90;16.40;96633.00;;;;5050229;28;20190;-76
2022/07/06 02:15:12;;;;;;;0.00;0.00;;;17.60;99.90;16.40;96635.00;;;;5051534;28;20690;-75
2022/07/06 02:17:41;;;;;;;0.00;0.00;;;17.40;99.90;16.20;96629.00;;;;5049920;28;20272;-76
2022/07/06 02:20:10;;;;;;;0.10;0.10;;;17.30;99.90;16.10;96632.00;;;;5050050;28;20229;-76
2022/07/06 02:22:38;;;;;;;0.00;0.00;;;17.20;99.90;16.10;96635.00;;;;5049850;28;20241;-76
2022/07/06 02:25:08;;;;;;;0.00;0.00;;;17.20;99.90;16.00;96637.00;;;;5049347;28;20203;-76
2022/07/06 02:27:37;;;;;;;0.10;0.10;;;17.20;99.90;16.00;96636.00;;;;5049946;28;20194;-76
2022/07/06 02:30:11;;;;;;;0.00;0.00;;;17.20;99.90;16.10;96723.00;;;;5049915;28;20773;-76
2022/07/06 02:32:39;;;;;;;0.00;0.00;;;17.20;99.90;16.10;96669.00;;;;5051323;28;20221;-76
2022/07/06 02:35:08;;;;;;;0.00;0.00;;;17.30;99.90;16.10;96684.00;;;;5050134;28;20214;-76
2022/07/06 02:37:37;;;;;;;0.00;0.00;;;17.40;99.90;16.00;96720.00;;;;5050031;28;20259;-76
2022/07/06 02:40:07;;;;;;;0.00;0.00;;;17.30;99.90;16.10;96719.00;;;;5050244;28;20246;-76
2022/07/06 02:42:36;;;;;;;0.00;0.00;;;17.30;99.90;15.90;96654.00;;;;5050090;28;20210;-77
2022/07/06 02:45:05;;;;;;;0.00;0.00;;;17.20;99.90;15.90;96643.00;;;;5051346;28;20281;-76
2022/07/06 02:47:35;;;;;;;0.00;0.00;;;17.20;99.90;15.90;96659.00;;;;5052394;28;20213;-74
2022/07/06 02:50:05;;;;;;;0.00;0.00;;;17.20;99.90;15.90;96643.00;;;;5051933;28;20249;-75
2022/07/06 02:52:33;;;;;;;0.00;0.00;;;17.10;99.90;15.90;96662.00;;;;5051363;28;20662;-76
2022/07/06 02:55:08;;;;;;;0.00;0.00;;;17.10;99.90;16.10;96671.00;;;;5050269;28;20244;-76
2022/07/06 02:57:37;;;;;;;0.00;0.00;;;17.30;99.90;16.00;96607.00;;;;5050284;28;20241;-75
2022/07/06 03:00:09;;;;;;;0.00;0.00;;;17.20;99.90;15.80;96649.00;;;;5050820;28;20748;-76
2022/07/06 03:02:38;;;;;;;0.00;0.00;;;17.00;99.90;15.70;96643.00;;;;5052836;28;20222;-75
2022/07/06 03:05:08;;;;;;;0.00;0.00;;;16.90;99.90;15.60;96625.00;;;;5061573;28;20199;-77
2022/07/06 03:07:36;;;;;;;0.00;0.00;;;16.70;99.90;15.50;96632.00;;;;5050210;28;20252;-76
2022/07/06 03:10:05;;;;;;;0.00;0.00;;;16.70;99.90;15.40;96606.00;;;;5051767;28;20242;-76
2022/07/06 03:12:33;;;;;;;0.00;0.00;;;16.50;99.90;15.20;96612.00;;;;5055056;28;20218;-77
2022/07/06 03:15:01;;;;;;;0.00;0.00;;;16.30;99.90;15.20;96618.00;;;;5053739;28;20201;-75
2022/07/06 03:17:32;;;;;;;0.00;0.00;;;16.30;99.90;15.20;96630.00;;;;5054006;28;20563;-76
2022/07/06 03:20:02;;;;;;;0.00;0.00;;;16.40;99.90;15.10;96610.00;;;;5054379;28;20633;-76
2022/07/06 03:22:30;;;;;;;0.00;0.00;;;16.40;99.90;15.20;96625.00;;;;5054921;28;20549;-75
2022/07/06 03:24:59;;;;;;;0.00;0.00;;;16.40;99.90;15.20;96629.00;;;;5053308;28;20600;-76
2022/07/06 03:27:27;;;;;;;0.00;0.00;;;16.40;99.90;15.20;96627.00;;;;5053131;28;20226;-76
2022/07/06 03:29:55;;;;;;;0.08;0.08;;;16.50;99.90;15.30;96638.00;;;;5052786;28;20222;-77
2022/07/06 03:32:23;;;;;;;0.00;0.00;;;16.50;99.90;15.20;96630.00;;;;5053309;28;20207;-77
2022/07/06 03:34:52;;;;;;;0.00;0.00;;;16.40;99.90;15.20;96621.00;;;;5053274;28;20297;-76
2022/07/06 03:37:21;;;;;;;0.00;0.00;;;16.30;99.90;15.00;96607.00;;;;5052843;28;20228;-76
2022/07/06 03:39:50;;;;;;;0.00;0.00;;;16.20;99.90;15.00;96614.00;;;;5052371;28;20241;-76
2022/07/06 03:42:18;;;;;;;0.00;0.00;;;16.30;99.90;15.10;96617.00;;;;5054140;28;20193;-76
2022/07/06 03:44:47;;;;;;;0.00;0.00;;;16.40;99.90;15.10;96619.00;;;;5054124;28;20187;-76
2022/07/06 03:47:14;;;;;;;0.00;0.00;;;16.30;99.90;15.10;96620.00;;;;5052647;28;20581;-76
2022/07/06 03:49:44;;;;;;;0.00;0.00;;;16.30;99.90;14.80;96619.00;;;;5054207;28;20621;-76
2022/07/06 03:52:12;;;;;;;0.00;0.00;;;16.30;99.90;15.10;96629.00;;;;5052695;28;20205;-77
2022/07/06 03:54:47;;;;;;;0.00;0.00;;;16.30;99.90;15.20;96628.00;;;;5053210;28;20615;-76
2022/07/06 03:57:21;;;;;;;0.00;0.00;;;16.40;99.90;15.00;96606.00;;;;5053502;28;20226;-76
2022/07/06 03:59:49;;;;;;;0.00;0.00;;;16.30;99.90;15.00;96611.00;;;;5054001;28;20217;-76
2022/07/06 04:02:17;;;;;;;0.00;0.00;;;16.20;99.90;15.00;96611.00;;;;5052640;28;20285;-76
2022/07/06 04:04:49;;;;;;;0.00;0.00;;;16.30;99.90;15.10;96609.00;;;;5053010;28;20199;-73
2022/07/06 04:07:18;;;;;;;0.00;0.00;;;16.30;99.90;15.20;96620.00;;;;5052761;28;20578;-73
2022/07/06 04:09:48;;;;;;;0.00;0.00;;;16.40;99.90;15.30;96640.00;;;;5052961;28;20304;-73
2022/07/06 04:12:16;;;;;;;0.00;0.00;;;16.40;99.90;15.40;96651.00;;;;5054434;28;20194;-73
2022/07/06 04:14:45;;;;;;;0.00;0.00;;;16.60;99.90;15.30;96643.00;;;;5053569;28;20194;-72
2022/07/06 04:19:59;;;;;;;0.00;0.00;;;16.30;99.90;15.20;96620.00;;;;5053500;28;20223;-73
2022/07/06 04:22:27;;;;;;;0.00;0.00;;;16.30;99.90;15.10;96625.00;;;;5053843;28;20244;-73
2022/07/06 04:24:56;;;;;;;0.10;0.10;;;16.30;99.90;15.30;96621.00;;;;5055671;28;20187;-74
2022/07/06 04:27:27;;;;;;;0.00;0.00;;;16.40;99.90;15.50;96652.00;;;;5054152;28;20194;-74
2022/07/06 04:29:55;;;;;;;0.00;0.00;;;16.60;99.90;15.70;96664.00;;;;5060581;28;20237;-73
2022/07/06 04:32:23;;;;;;;0.00;0.00;;;16.80;99.90;15.80;96675.00;;;;5060995;28;20182;-72
2022/07/06 04:34:53;;;;;;;0.00;0.00;;;16.90;99.90;16.00;96681.00;;;;5060525;28;20218;-73
2022/07/06 04:37:21;;;;;;;0.00;0.00;;;17.00;99.90;16.10;96678.00;;;;5057792;28;20226;-73
2022/07/06 04:39:49;;;;;;;0.00;0.00;;;17.10;99.90;16.20;96683.00;;;;5058599;28;20214;-73
2022/07/06 04:42:19;;;;;;;0.00;0.00;;;17.30;99.90;16.30;96674.00;;;;5058477;28;20198;-73
2022/07/06 04:44:48;;;;;;;0.00;0.00;;;17.30;99.90;16.30;96703.00;;;;5059291;28;20201;-73
2022/07/06 04:47:16;;;;;;;0.00;0.00;;;17.40;99.90;16.40;96706.00;;;;5062101;28;20195;-74
2022/07/06 04:49:45;;;;;;;0.00;0.00;;;17.40;99.90;16.40;96680.00;;;;5061254;28;20226;-73
2022/07/06 04:52:15;;;;;;;0.00;0.00;;;17.50;99.90;16.60;96704.00;;;;5058643;28;20198;-74
2022/07/06 04:54:43;;;;;;;0.00;0.00;;;17.60;99.90;16.50;96701.00;;;;5059354;28;20268;-73
2022/07/06 04:57:13;;;;;;;0.00;0.00;;;17.70;99.90;16.50;96700.00;;;;5056482;28;20230;-73
2022/07/06 04:59:44;;;;;;;0.00;0.00;;;17.60;99.90;16.30;96683.00;;;;5055077;28;20214;-73
2022/07/06 05:02:13;;;;;;;0.10;0.10;;;17.50;99.90;16.30;96696.00;;;;5052296;28;20697;-73
2022/07/06 05:04:41;;;;;;;0.00;0.00;;;17.50;99.90;16.50;96694.00;;;;5053412;28;20205;-73
2022/07/06 05:07:09;;;;;;;0.00;0.00;;;17.60;99.90;16.60;96715.00;;;;5052394;28;20190;-73
2022/07/06 05:09:38;;;;;;;0.00;0.00;;;17.70;99.90;16.80;96732.00;;;;5051753;28;20214;-74
2022/07/06 05:12:08;;;;;;;0.00;0.00;;;17.70;99.90;16.60;96704.00;;;;5052797;28;20205;-74
2022/07/06 05:14:36;;;;;;;0.00;0.00;;;17.70;99.90;16.70;96715.00;;;;5052654;28;20290;-73
2022/07/06 05:17:07;;;;;;;0.00;0.00;;;17.80;99.90;16.80;96717.00;;;;5052798;28;20222;-73
2022/07/06 05:19:36;;;;;;;0.00;0.00;;;17.80;99.90;16.80;96742.00;;;;5053256;28;20215;-73
2022/07/06 05:22:04;;;;;;;0.00;0.00;;;17.90;99.90;16.80;96740.00;;;;5059953;28;20225;-73
2022/07/06 05:24:33;;;;;;;0.00;0.00;;;17.90;99.90;16.70;96724.00;;;;5064019;28;20218;-73
2022/07/06 05:27:01;;;;;;;0.00;0.00;;;17.90;99.90;16.70;96711.00;;;;5062185;28;20199;-73
2022/07/06 05:29:29;;;;;;;0.05;0.05;;;17.90;99.90;16.70;96715.00;;;;5061924;28;20226;-73
2022/07/06 05:31:58;;;;;;;0.00;0.00;;;17.80;99.90;16.70;96712.00;;;;5057147;28;20191;-73
2022/07/06 05:34:27;;;;;;;0.00;0.00;;;17.80;99.90;16.80;96727.00;;;;5051743;28;20199;-73
2022/07/06 05:36:55;;;;;;;0.00;0.00;;;17.90;99.90;16.80;96741.00;;;;5053047;28;20256;-74
2022/07/06 05:39:28;;;;;;;0.00;0.00;;;17.90;99.90;16.70;96721.00;;;;5051003;28;20210;-72
2022/07/06 05:41:56;;;;;;;0.00;0.00;;;17.90;99.90;16.80;96733.00;;;;5051280;28;20256;-73
2022/07/06 05:44:24;;;;;;;0.00;0.00;;;17.90;99.90;16.80;96745.00;;;;5051302;28;20206;-73
2022/07/06 05:50:11;;;;;;;0.00;0.00;;;17.90;99.90;16.80;96760.00;;;;5050922;28;20645;-73
2022/07/06 05:52:30;;;;;;;0.00;0.00;;;18.00;99.90;16.90;96755.00;;;;5050986;28;20197;-73
2022/07/06 05:54:58;;;;;;;0.00;0.00;;;18.00;99.90;17.00;96771.00;;;;5052082;28;20201;-73
2022/07/06 05:57:26;;;;;;;0.00;0.00;;;18.00;99.90;17.20;96794.00;;;;5050753;28;20218;-73
2022/07/06 05:59:55;;;;;;;0.00;0.00;;;18.10;99.90;17.10;96773.00;;;;5050311;28;20260;-73
2022/07/06 06:02:23;;;;;;;0.00;0.00;;;18.20;99.90;17.30;96779.00;;;;5050008;28;20191;-73
2022/07/06 06:04:54;;;;;;;0.00;0.00;;;18.30;99.90;17.50;96779.00;;;;5050243;28;20198;-74
2022/07/06 06:07:22;;;;;;;0.00;0.00;;;18.50;99.90;17.60;96788.00;;;;5050304;28;20202;-74
2022/07/06 06:09:50;;;;;;;0.00;0.00;;;18.60;99.90;17.70;96794.00;;;;5050267;28;20223;-73
2022/07/06 06:12:18;;;;;;;0.00;0.00;;;18.70;99.90;17.80;96792.00;;;;5050864;28;20557;-73
2022/07/06 06:14:46;;;;;;;0.05;0.05;;;18.80;99.90;17.90;96805.00;;;;5050565;28;20199;-74
2022/07/06 06:17:15;;;;;;;0.00;0.00;;;18.90;99.90;17.80;96804.00;;;;5052888;28;20213;-74
2022/07/06 06:19:42;;;;;;;0.00;0.00;;;18.90;99.90;18.00;96819.00;;;;5055060;28;20206;-73
2022/07/06 06:22:12;;;;;;;0.00;0.00;;;19.00;99.90;18.00;96816.00;;;;5052244;28;20218;-73
2022/07/06 06:24:40;;;;;;;0.00;0.00;;;19.00;99.90;17.80;96812.00;;;;5051645;28;20205;-73
2022/07/06 06:27:08;;;;;;;0.00;0.00;;;19.00;99.90;17.60;96815.00;;;;5051914;28;20680;-74
2022/07/06 06:29:36;;;;;;;0.00;0.00;;;18.80;99.90;17.60;96799.00;;;;5051734;28;20217;-73
2022/07/06 06:32:05;;;;;;;0.00;0.00;;;18.80;99.90;17.70;96748.00;;;;5052054;28;20191;-73
2022/07/06 06:34:33;;;;;;;0.00;0.00;;;18.80;99.90;17.50;96791.00;;;;5051574;28;20218;-73
2022/07/06 06:37:01;;;;;;;0.10;0.10;;;18.70;99.90;17.60;96803.00;;;;5051357;28;20198;-74
2022/07/06 06:39:31;;;;;;;0.00;0.00;;;18.60;99.90;17.70;96814.00;;;;5051368;28;20213;-73
2022/07/06 06:41:59;;;;;;;0.00;0.00;;;18.80;99.90;17.90;96826.00;;;;5051964;28;20534;-73
2022/07/06 06:44:32;;;;;;;0.00;0.00;;;18.90;99.90;17.90;96825.00;;;;5052105;28;20198;-74
2022/07/06 06:47:00;;;;;;;0.00;0.00;;;18.90;99.90;18.00;96832.00;;;;5055424;28;20187;-73
2022/07/06 06:49:28;;;;;;;0.00;0.00;;;19.00;99.90;18.00;96826.00;;;;5055581;28;20214;-73
2022/07/06 06:51:56;;;;;;;0.00;0.00;;;19.10;99.90;17.80;96824.00;;;;5055326;28;20198;-74
2022/07/06 06:54:46;;;;;;;0.00;0.00;;;19.00;99.90;18.00;96838.00;;;;5055507;28;20194;-74
2022/07/06 06:57:13;;;;;;;0.00;0.00;;;19.00;99.90;18.20;96850.00;;;;5055550;28;20187;-74
2022/07/06 06:59:41;;;;;;;0.00;0.00;;;19.10;99.90;18.30;96843.00;;;;5057502;28;20306;-74
2022/07/06 07:02:09;;;;;;;0.00;0.00;;;19.20;99.90;18.30;96847.00;;;;5057250;28;20199;-74
2022/07/06 07:04:38;;;;;;;0.00;0.00;;;19.30;99.90;18.50;96858.00;;;;5055960;28;20194;-74
2022/07/06 07:07:06;;;;;;;0.00;0.00;;;19.40;99.90;18.60;96863.00;;;;5055269;28;20194;-74
2022/07/06 07:09:34;;;;;;;0.00;0.00;;;19.60;99.90;18.70;96860.00;;;;5054916;28;20281;-73
2022/07/06 07:12:04;;;;;;;0.00;0.00;;;19.70;99.90;18.80;96852.00;;;;5055151;28;20252;-75
2022/07/06 07:14:32;;;;;;;0.00;0.00;;;19.70;99.90;18.70;96864.00;;;;5054923;28;20205;-74
2022/07/06 07:17:00;;;;;;;0.00;0.00;;;19.80;99.90;18.80;96853.00;;;;5054701;28;20209;-73
2022/07/06 07:19:28;;;;;;;0.00;0.00;;;19.80;99.90;19.00;96868.00;;;;5054457;28;20229;-74
2022/07/06 07:21:56;;;;;;;0.00;0.00;;;19.90;99.90;18.90;96867.00;;;;5054670;28;20194;-73
2022/07/06 07:24:24;;;;;;;0.00;0.00;;;19.90;99.90;18.90;96859.00;;;;5053329;28;20567;-73
2022/07/06 07:26:52;;;;;;;0.00;0.00;;;19.80;99.90;19.00;96871.00;;;;5054527;28;20193;-75
2022/07/06 07:29:21;;;;;;;0.00;0.00;;;19.90;99.90;19.20;96885.00;;;;5054498;28;20327;-74
2022/07/06 07:31:49;;;;;;;0.00;0.00;;;20.10;99.90;19.40;96895.00;;;;5054692;28;20612;-73
2022/07/06 07:34:18;;;;;;;0.00;0.00;;;20.30;99.90;19.60;96931.00;;;;5054746;28;20205;-73
2022/07/06 07:36:46;;;;;;;0.00;0.00;;;20.50;99.90;19.60;96923.00;;;;5054626;28;20263;-73
2022/07/06 07:39:14;;;;;;;0.00;0.00;;;20.60;99.90;19.50;96913.00;;;;5054095;28;20229;-73
2022/07/06 07:41:42;;;;;;;0.00;0.00;;;20.70;99.90;20.00;96924.00;;;;5054504;28;20627;-73
2022/07/06 07:44:10;;;;;;;0.00;0.00;;;20.80;99.90;20.10;96929.00;;;;5054631;28;20191;-73
2022/07/06 07:46:39;;;;;;;0.00;0.00;;;20.90;99.90;20.30;96931.00;;;;5054417;28;20190;-74
2022/07/06 07:49:07;;;;;;;0.00;0.00;;;21.10;99.90;20.40;96924.00;;;;5054080;28;20332;-74
2022/07/06 07:51:36;;;;;;;0.00;0.00;;;21.20;99.90;20.40;96936.00;;;;5053415;28;20221;-73
2022/07/06 07:54:04;;;;;;;0.00;0.00;;;21.20;99.90;20.10;96918.00;;;;5053933;28;20217;-73
2022/07/06 07:56:32;;;;;;;0.00;0.00;;;21.10;99.90;20.00;96933.00;;;;5053274;28;20190;-73
2022/07/06 07:59:01;;;;;;;0.00;0.00;;;20.90;99.90;20.20;96943.00;;;;5054136;28;20236;-73
2022/07/06 08:01:31;;;;;;;0.00;0.00;;;21.00;99.90;20.30;96932.00;;;;5052810;28;20712;-73
2022/07/06 08:04:01;;;;;;;0.00;0.00;;;21.20;99.90;20.40;96940.00;;;;5053734;28;20222;-74
2022/07/06 08:06:29;;;;;;;0.00;0.00;;;21.30;99.90;20.50;96913.00;;;;5054156;28;20190;-74
2022/07/06 08:08:57;;;;;;;0.00;0.00;;;21.30;99.90;20.80;96929.00;;;;5054878;28;20273;-74
2022/07/06 08:11:25;;;;;;;0.00;0.00;;;21.50;99.90;21.20;96950.00;;;;5054121;28;20228;-74
2022/07/06 08:13:53;;;;;;;0.00;0.00;;;21.80;99.90;21.40;96962.00;;;;5054488;28;20697;-74
2022/07/06 08:16:21;;;;;;;0.00;0.00;;;22.10;99.90;20.90;96923.00;;;;5054008;28;20197;-75
2022/07/06 08:18:50;;;;;;;0.00;0.00;;;21.90;99.90;21.10;96938.00;;;;5053529;28;20304;-74
2022/07/06 08:21:19;;;;;;;0.00;0.00;;;22.00;99.90;21.10;96943.00;;;;5051960;28;20719;-74
2022/07/06 08:23:55;;;;;;;0.00;0.00;;;22.00;99.90;20.80;96913.00;;;;5053945;28;20553;-73
2022/07/06 08:26:24;;;;;;;0.00;0.00;;;21.80;99.90;21.00;96954.00;;;;5053284;28;20186;-73
2022/07/06 08:28:52;;;;;;;0.00;0.00;;;21.90;99.90;21.40;96962.00;;;;5053989;28;20603;-75
2022/07/06 08:31:20;;;;;;;0.00;0.00;;;22.10;99.90;20.90;96930.00;;;;5053943;28;20693;-74
2022/07/06 08:34:09;;;;;;;0.00;0.00;;;21.80;99.90;20.80;96924.00;;;;5054181;28;20217;-74
2022/07/06 08:36:39;;;;;;;0.00;0.00;;;21.70;99.90;21.00;96933.00;;;;5054239;28;20197;-73
2022/07/06 08:39:07;;;;;;;0.00;0.00;;;21.90;99.90;21.20;96947.00;;;;5053301;28;20237;-73
2022/07/06 08:41:39;;;;;;;0.00;0.00;;;22.00;99.90;21.50;96978.00;;;;5053455;28;20201;-73
2022/07/06 08:44:08;;;;;;;0.00;0.00;;;22.20;99.90;21.60;96970.00;;;;5053155;28;20191;-74
2022/07/06 08:46:39;;;;;;;0.00;0.00;;;22.40;99.90;21.70;96975.00;;;;5052915;28;20205;-75
2022/07/06 08:49:09;;;;;;;0.00;0.00;;;22.50;99.90;22.00;96983.00;;;;5052788;28;20195;-74
2022/07/06 08:51:39;;;;;;;0.00;0.00;;;22.70;99.90;21.80;96964.00;;;;5051977;28;20198;-74
2022/07/06 08:54:08;;;;;;;0.00;0.00;;;22.70;99.80;22.20;97006.00;;;;5052883;28;20835;-73
2022/07/06 08:56:36;;;;;;;0.00;0.00;;;22.90;99.80;22.60;97025.00;;;;5052977;28;20218;-73
2022/07/06 08:59:04;;;;;;;0.00;0.00;;;23.20;99.40;22.70;97017.00;;;;5052676;28;20222;-73
2022/07/06 09:01:33;;;;;;;0.00;0.00;;;23.40;98.90;22.70;97014.00;;;;5053133;28;20202;-73
2022/07/06 09:04:05;;;;;;;0.00;0.00;;;23.40;98.90;22.10;96978.00;;;;5052807;28;20197;-73
2022/07/06 09:06:35;;;;;;;0.00;0.00;;;23.10;98.50;22.20;96974.00;;;;5052329;28;20186;-73
2022/07/06 09:09:07;;;;;;;0.00;0.00;;;23.10;98.90;22.20;96966.00;;;;5051415;28;20663;-75
2022/07/06 09:11:37;;;;;;;0.00;0.00;;;23.10;98.90;22.20;96962.00;;;;5052308;28;20191;-73
2022/07/06 09:14:05;;;;;;;0.00;0.00;;;23.00;99.10;22.00;96930.00;;;;5052312;28;20666;-73
2022/07/06 09:16:33;;;;;;;0.00;0.00;;;22.90;99.20;22.40;96958.00;;;;5052101;28;20186;-73
2022/07/06 09:19:08;;;;;;;0.00;0.00;;;23.10;99.10;22.50;96982.00;;;;5052217;28;20297;-73
2022/07/06 09:21:37;;;;;;;0.00;0.00;;;23.30;99.10;22.80;96971.00;;;;5052207;28;20187;-74
2022/07/06 09:24:11;;;;;;;0.00;0.00;;;23.40;98.70;22.90;96980.00;;;;5051999;28;20272;-74
2022/07/06 09:26:39;;;;;;;0.00;0.00;;;23.60;98.40;22.80;96965.00;;;;5052048;28;20186;-73
2022/07/06 09:29:07;;;;;;;0.00;0.00;;;23.60;98.30;22.70;96972.00;;;;5051714;28;20194;-73
2022/07/06 09:31:35;;;;;;;0.00;0.00;;;23.60;98.10;22.60;96970.00;;;;5052083;28;20215;-74
2022/07/06 09:34:06;;;;;;;0.00;0.00;;;23.50;97.80;21.70;96930.00;;;;5051886;28;20191;-74
2022/07/06 09:36:43;;;;;;;0.00;0.00;;;23.00;98.10;21.50;96907.00;;;;5051898;28;20194;-73
2022/07/06 09:39:23;;;;;;;0.00;0.00;;;22.70;98.80;21.70;96943.00;;;;5051419;28;20218;-73
2022/07/06 09:41:54;;;;;;;0.00;0.00;;;22.70;98.60;21.90;96943.00;;;;5052081;28;20657;-73
2022/07/06 09:44:24;;;;;;;0.00;0.00;;;22.80;98.80;21.90;96955.00;;;;5051570;28;20530;-75
2022/07/06 09:46:54;;;;;;;0.00;0.00;;;22.80;98.50;22.10;96950.00;;;;5051928;28;20201;-73
2022/07/06 09:49:23;;;;;;;0.00;0.00;;;22.90;98.50;22.40;96967.00;;;;5051284;28;20662;-74
2022/07/06 09:51:54;;;;;;;0.00;0.00;;;23.10;98.30;22.70;96963.00;;;;5052085;28;20190;-73
2022/07/06 09:54:24;;;;;;;0.00;0.00;;;23.30;98.00;22.90;96970.00;;;;5051684;28;20680;-73
2022/07/06 09:56:54;;;;;;;0.00;0.00;;;23.50;97.40;23.00;96954.00;;;;5052734;28;20199;-74
2022/07/06 09:59:26;;;;;;;0.00;0.00;;;23.90;96.50;22.90;96949.00;;;;5052145;28;20549;-73
2022/07/06 10:01:56;;;;;;;0.00;0.00;;;23.80;95.90;22.70;96946.00;;;;5052428;28;20218;-73
2022/07/06 10:04:26;;;;;;;0.00;0.00;;;23.70;96.10;22.40;96934.00;;;;5052661;28;20194;-74
2022/07/06 10:06:56;;;;;;;0.00;0.00;;;23.50;96.40;22.50;96919.00;;;;5052829;28;20559;-74
2022/07/06 10:09:28;;;;;;;0.00;0.00;;;23.50;96.80;22.90;96960.00;;;;5052070;28;20222;-74
2022/07/06 10:12:01;;;;;;;0.00;0.00;;;23.70;96.50;23.00;96953.00;;;;5051022;28;20583;-74
2022/07/06 10:14:32;;;;;;;0.00;0.00;;;23.70;96.40;23.20;96932.00;;;;5052365;28;20194;-74
2022/07/06 10:17:04;;;;;;;0.00;0.00;;;23.90;96.40;23.70;96971.00;;;;5052148;28;20194;-74
2022/07/06 10:19:34;;;;;;;0.00;0.00;;;24.30;96.00;23.80;96938.00;;;;5052762;28;20283;-73
2022/07/06 10:22:04;;;;;;;0.00;0.00;;;24.50;96.20;23.90;96976.00;;;;5055928;28;20217;-73
2022/07/06 10:24:39;;;;;;;0.00;0.00;;;24.60;96.30;23.70;96973.00;;;;5055768;28;20198;-73
2022/07/06 10:27:09;;;;;;;0.00;0.00;;;24.50;96.30;23.40;96977.00;;;;5056310;28;20190;-74
2022/07/06 10:29:37;;;;;;;0.00;0.00;;;24.40;96.50;23.30;96947.00;;;;5055529;28;20214;-74
2022/07/06 10:32:08;;;;;;;0.00;0.00;;;24.20;96.50;23.50;96954.00;;;;5056160;28;20209;-74
2022/07/06 10:34:37;;;;;;;0.00;0.00;;;24.30;96.50;23.60;96957.00;;;;5056677;28;20213;-73
2022/07/06 10:37:05;;;;;;;0.00;0.00;;;24.30;96.20;23.80;96961.00;;;;5056054;28;20218;-73
2022/07/06 10:42:45;;;;;;;0.00;0.00;;;24.70;95.90;24.40;96988.00;;;;5055381;28;20708;-74
2022/07/06 10:45:16;;;;;;;0.00;0.00;;;24.90;95.30;24.10;96960.00;;;;5056475;28;20225;-72
2022/07/06 10:47:44;;;;;;;0.00;0.00;;;25.00;94.50;24.50;96970.00;;;;5056797;28;20677;-74
2022/07/06 10:50:13;;;;;;;0.00;0.00;;;25.20;94.80;24.60;96983.00;;;;5054956;28;20218;-74
2022/07/06 10:52:53;;;;;;;0.00;0.00;;;25.30;94.40;24.50;96983.00;;;;5055816;28;20661;-73
2022/07/06 10:55:35;;;;;;;0.00;0.00;;;25.30;94.20;24.20;96988.00;;;;5056353;28;20200;-73
2022/07/06 10:58:05;;;;;;;0.00;0.00;;;25.10;94.20;24.00;96980.00;;;;5056157;28;20198;-73
2022/07/06 11:00:52;;;;;;;0.00;0.00;;;24.90;94.40;23.80;96935.00;;;;5056252;28;20218;-72
2022/07/06 11:03:36;;;;;;;0.00;0.00;;;24.70;94.50;23.70;96965.00;;;;5054905;28;20228;-73
2022/07/06 11:06:09;;;;;;;0.00;0.00;;;24.60;94.60;23.50;96963.00;;;;5055269;28;20198;-73
2022/07/06 11:08:52;;;;;;;0.00;0.00;;;24.40;94.60;23.30;96957.00;;;;5055600;28;20677;-72
2022/07/06 11:11:24;;;;;;;0.00;0.00;;;24.20;94.70;23.20;96952.00;;;;5056761;28;20222;-72
2022/07/06 11:14:01;;;;;;;0.00;0.00;;;24.00;95.00;23.10;96949.00;;;;5056054;28;20194;-74